Time;durP1;ratioP1;P1;durP2;ratioP2;P2;SDS_P1;SDS_P2;PMS_P1;PMS_P2;Temp;Humidity;BMP_temperature;BMP_pressure;BME280_temperature;BME280_humidity;BME280_pressure;Samples;Min_cycle;Max_cycle;Signal;HPM_P1;HPM_P2
2023/06/23 00:00:20;;;;;;;11.43;7.97;;;17.30;99.90;;;;;;5035668;28;20447;-86
2023/06/23 00:02:46;;;;;;;13.50;8.73;;;17.30;99.90;;;;;;5037644;28;20087;-80
2023/06/23 00:05:12;;;;;;;12.48;8.77;;;17.30;99.90;;;;;;5051721;28;20393;-80
2023/06/23 00:07:39;;;;;;;12.25;7.80;;;17.20;99.90;;;;;;5018765;28;20029;-80
2023/06/23 00:10:06;;;;;;;12.15;8.13;;;17.20;99.90;;;;;;5051464;28;20017;-80
2023/06/23 00:12:35;;;;;;;13.32;8.05;;;17.20;99.90;;;;;;5051440;28;20017;-80
2023/06/23 00:15:07;;;;;;;10.30;6.70;;;17.20;99.90;;;;;;5019087;28;20120;-79
2023/06/23 00:17:33;;;;;;;13.38;7.93;;;17.10;99.90;;;;;;5035509;28;20021;-87
2023/06/23 00:19:58;;;;;;;13.65;8.48;;;17.20;99.90;;;;;;5052655;28;20086;-85
2023/06/23 00:22:27;;;;;;;12.30;8.25;;;17.10;99.90;;;;;;5053918;28;20134;-84
2023/06/23 00:24:54;;;;;;;11.13;7.40;;;17.10;99.90;;;;;;5038310;28;20033;-84
2023/06/23 00:27:19;;;;;;;15.55;8.65;;;17.10;99.90;;;;;;5040492;28;20036;-87
2023/06/23 00:29:45;;;;;;;11.88;8.52;;;17.10;99.90;;;;;;5040913;28;20032;-83
2023/06/23 00:32:11;;;;;;;11.70;8.30;;;17.00;99.90;;;;;;5041827;28;20059;-86
2023/06/23 00:34:37;;;;;;;13.10;8.75;;;17.00;99.90;;;;;;5055051;28;20037;-87
2023/06/23 00:37:03;;;;;;;13.38;8.80;;;16.90;99.90;;;;;;5056678;28;20429;-84
2023/06/23 00:39:28;;;;;;;11.85;8.02;;;16.90;99.90;;;;;;5038628;28;20029;-84
2023/06/23 00:41:54;;;;;;;9.95;7.25;;;16.90;99.90;;;;;;5054982;28;20112;-84
2023/06/23 00:44:20;;;;;;;13.43;7.97;;;16.90;99.90;;;;;;5054979;28;20036;-87
2023/06/23 00:46:45;;;;;;;12.77;8.30;;;16.80;99.90;;;;;;5055279;28;20033;-84
2023/06/23 00:49:15;;;;;;;12.93;8.02;;;16.80;99.90;;;;;;5038253;28;20477;-85
2023/06/23 00:51:41;;;;;;;11.40;8.32;;;16.80;99.90;;;;;;5021857;28;20166;-85
2023/06/23 00:54:07;;;;;;;15.10;8.35;;;16.70;99.90;;;;;;5038062;28;20491;-80
2023/06/23 00:56:33;;;;;;;17.73;8.35;;;16.70;99.90;;;;;;5054524;28;20039;-80
2023/06/23 00:58:59;;;;;;;13.63;8.18;;;16.70;99.90;;;;;;5021704;28;20021;-79
2023/06/23 01:01:25;;;;;;;15.23;9.38;;;16.70;99.90;;;;;;5037944;28;20370;-80
2023/06/23 01:03:51;;;;;;;14.52;9.27;;;16.70;99.90;;;;;;5021678;28;20031;-80
2023/06/23 01:07:05;;;;;;;14.60;9.50;;;16.70;99.90;;;;;;5055815;28;20103;-85
2023/06/23 01:10:12;;;;;;;15.20;9.82;;;16.70;99.90;;;;;;5054019;28;20059;-85
2023/06/23 01:13:28;;;;;;;13.18;8.93;;;16.60;99.90;;;;;;5017270;28;20021;-80
2023/06/23 01:16:01;;;;;;;12.93;9.00;;;16.60;99.90;;;;;;5029287;28;20036;-79
2023/06/23 01:18:58;;;;;;;12.65;8.98;;;16.50;99.90;;;;;;5054508;28;20013;-79
2023/06/23 01:21:49;;;;;;;13.35;9.57;;;16.50;99.90;;;;;;5054056;28;20048;-80
2023/06/23 01:24:50;;;;;;;15.77;10.18;;;16.50;99.90;;;;;;5053991;28;20021;-79
2023/06/23 01:27:28;;;;;;;12.23;8.90;;;16.50;99.90;;;;;;5041337;28;20547;-85
2023/06/23 01:29:57;;;;;;;14.20;10.18;;;16.50;99.90;;;;;;5054057;28;20028;-85
2023/06/23 01:32:26;;;;;;;13.43;9.23;;;16.40;99.90;;;;;;5054027;28;20108;-85
2023/06/23 01:34:57;;;;;;;16.48;9.82;;;16.40;99.90;;;;;;5054030;28;20071;-87
2023/06/23 01:37:29;;;;;;;17.15;11.27;;;16.40;99.90;;;;;;5053340;28;20071;-79
2023/06/23 01:39:59;;;;;;;13.75;9.52;;;16.40;99.90;;;;;;5053809;28;20032;-80
2023/06/23 01:42:33;;;;;;;16.33;9.80;;;16.40;99.90;;;;;;5053681;28;20028;-80
2023/06/23 01:45:02;;;;;;;14.32;10.00;;;16.30;99.90;;;;;;5053686;28;20025;-79
2023/06/23 01:47:32;;;;;;;14.45;10.30;;;16.30;99.90;;;;;;5053600;28;20021;-80
2023/06/23 01:50:01;;;;;;;16.55;10.18;;;16.30;99.90;;;;;;5053446;28;20024;-85
2023/06/23 01:52:29;;;;;;;14.00;9.57;;;16.30;99.90;;;;;;5053565;28;20017;-84
2023/06/23 01:54:57;;;;;;;13.57;9.68;;;16.30;99.90;;;;;;5053508;28;20469;-85
2023/06/23 01:57:25;;;;;;;14.98;10.45;;;16.30;99.90;;;;;;5037110;28;20024;-87
2023/06/23 01:59:52;;;;;;;12.75;8.65;;;16.30;99.90;;;;;;5053345;28;20021;-79
2023/06/23 02:02:19;;;;;;;14.20;9.73;;;16.20;99.90;;;;;;5053311;28;20029;-79
2023/06/23 02:04:48;;;;;;;17.83;10.35;;;16.20;99.90;;;;;;5037187;28;20103;-84
2023/06/23 02:07:17;;;;;;;12.95;9.50;;;16.10;99.90;;;;;;5054526;28;20033;-86
2023/06/23 02:09:45;;;;;;;15.38;11.00;;;16.20;99.90;;;;;;5054514;28;20458;-85
2023/06/23 02:12:12;;;;;;;14.68;10.02;;;16.20;99.90;;;;;;5053281;28;20370;-86
2023/06/23 02:14:39;;;;;;;14.55;10.40;;;16.20;99.90;;;;;;5020249;28;20021;-79
2023/06/23 02:17:10;;;;;;;18.73;11.68;;;16.20;99.90;;;;;;5054292;28;20028;-84
2023/06/23 02:19:41;;;;;;;16.58;10.60;;;16.10;99.90;;;;;;5054454;28;20067;-85
2023/06/23 02:22:17;;;;;;;15.60;11.57;;;16.10;99.90;;;;;;5052833;28;20052;-84
2023/06/23 02:24:43;;;;;;;19.75;12.38;;;16.10;99.90;;;;;;5053002;28;20025;-85
2023/06/23 02:27:09;;;;;;;16.67;11.70;;;16.10;99.90;;;;;;5036730;28;20029;-85
2023/06/23 02:29:37;;;;;;;18.23;12.32;;;16.10;99.90;;;;;;5052856;28;20059;-84
2023/06/23 02:32:03;;;;;;;17.83;12.88;;;16.10;99.90;;;;;;5054102;28;20029;-84
2023/06/23 02:34:29;;;;;;;16.85;13.25;;;16.10;99.90;;;;;;5053089;28;20032;-85
2023/06/23 02:37:01;;;;;;;18.10;12.52;;;16.10;99.90;;;;;;5053069;28;20083;-79
2023/06/23 02:39:33;;;;;;;21.63;14.32;;;16.10;99.90;;;;;;5052740;28;20025;-79
2023/06/23 02:42:00;;;;;;;20.75;14.27;;;16.00;99.90;;;;;;5052663;28;20036;-84
2023/06/23 02:44:39;;;;;;;21.17;14.60;;;16.00;99.90;;;;;;5036287;28;20171;-83
2023/06/23 02:47:13;;;;;;;21.75;15.88;;;16.00;99.90;;;;;;5054124;28;20139;-79
2023/06/23 02:49:39;;;;;;;22.52;17.30;;;16.00;99.90;;;;;;5051551;28;20021;-78
2023/06/23 02:52:08;;;;;;;22.60;17.08;;;16.00;99.90;;;;;;5052553;28;20067;-85
2023/06/23 02:54:40;;;;;;;25.92;16.98;;;16.00;99.90;;;;;;5053093;28;20021;-79
2023/06/23 02:57:08;;;;;;;24.25;16.08;;;16.00;99.90;;;;;;5052367;28;20021;-78
2023/06/23 02:59:36;;;;;;;26.17;18.95;;;16.00;99.90;;;;;;5052724;28;20037;-84
2023/06/23 03:02:06;;;;;;;30.60;22.42;;;16.00;99.90;;;;;;5036479;28;20048;-79
2023/06/23 03:04:34;;;;;;;33.28;22.27;;;16.00;99.90;;;;;;5020924;28;20037;-87
2023/06/23 03:07:01;;;;;;;33.55;23.38;;;16.00;99.90;;;;;;5052507;28;20381;-79
2023/06/23 03:09:26;;;;;;;36.97;28.05;;;15.90;99.90;;;;;;5035613;28;20032;-80
2023/06/23 03:11:52;;;;;;;45.55;30.73;;;15.90;99.90;;;;;;5035638;28;20029;-80
2023/06/23 03:14:18;;;;;;;42.92;30.40;;;15.90;99.90;;;;;;5035966;28;20025;-79
2023/06/23 03:16:54;;;;;;;47.42;30.95;;;15.90;99.90;;;;;;5052712;28;20029;-80
2023/06/23 03:19:26;;;;;;;44.95;30.67;;;16.00;99.90;;;;;;5051926;28;20120;-85
2023/06/23 03:22:12;;;;;;;48.53;33.53;;;16.00;99.90;;;;;;5051767;28;20084;-80
2023/06/23 03:24:41;;;;;;;50.45;33.97;;;16.00;99.90;;;;;;5051998;28;20083;-79
2023/06/23 03:27:09;;;;;;;49.28;32.97;;;15.90;99.90;;;;;;5051955;28;20537;-79
2023/06/23 03:29:46;;;;;;;46.10;32.17;;;16.00;99.90;;;;;;5035482;28;20059;-86
2023/06/23 03:32:14;;;;;;;52.28;35.38;;;15.90;99.90;;;;;;5052334;28;20106;-86
2023/06/23 03:35:02;;;;;;;56.28;35.35;;;16.00;99.90;;;;;;5051847;28;20033;-79
2023/06/23 03:37:30;;;;;;;50.67;34.53;;;15.90;99.90;;;;;;5051656;28;20029;-80
2023/06/23 03:40:06;;;;;;;53.70;33.55;;;15.90;99.90;;;;;;5051865;28;20064;-80
2023/06/23 03:42:36;;;;;;;53.13;35.45;;;15.90;99.90;;;;;;5051802;28;20024;-79
2023/06/23 03:45:06;;;;;;;53.78;35.55;;;15.90;99.90;;;;;;5051649;28;20037;-84
2023/06/23 03:47:33;;;;;;;51.47;33.85;;;15.90;99.90;;;;;;5051794;28;20025;-84
2023/06/23 03:50:11;;;;;;;51.00;34.92;;;15.90;99.90;;;;;;5052364;28;20029;-85
2023/06/23 03:52:39;;;;;;;56.83;38.53;;;15.90;99.90;;;;;;5051866;28;20025;-85
2023/06/23 03:55:07;;;;;;;55.47;36.25;;;15.90;99.90;;;;;;5035452;28;20064;-86
2023/06/23 03:57:35;;;;;;;55.28;36.53;;;15.90;99.90;;;;;;5053194;28;20058;-80
2023/06/23 04:02:39;;;;;;;55.50;35.72;;;15.90;99.90;;;;;;3274131;23;20149;-89
2023/06/23 04:05:16;;;;;;;60.70;37.63;;;15.90;99.90;;;;;;5003428;28;20105;-89
2023/06/23 04:07:44;;;;;;;54.22;36.30;;;15.90;99.90;;;;;;4997201;28;20109;-91
2023/06/23 04:10:12;;;;;;;58.75;38.00;;;15.90;99.90;;;;;;4999857;28;20073;-92
2023/06/23 04:12:39;;;;;;;54.35;36.50;;;15.80;99.90;;;;;;4999609;28;20534;-90
2023/06/23 04:15:09;;;;;;;56.15;36.97;;;15.80;99.90;;;;;;4999389;28;20041;-93
2023/06/23 04:17:38;;;;;;;53.53;33.75;;;15.90;99.90;;;;;;4999575;28;20106;-89
2023/06/23 04:20:07;;;;;;;47.58;33.08;;;15.90;99.90;;;;;;4998707;28;20022;-91
2023/06/23 04:22:36;;;;;;;49.72;34.35;;;15.90;99.90;;;;;;4999814;28;20034;-90
2023/06/23 04:25:05;;;;;;;47.80;32.67;;;15.90;99.90;;;;;;5000274;28;20018;-93
2023/06/23 04:27:32;;;;;;;51.22;33.90;;;15.90;99.90;;;;;;4998909;28;20061;-89
2023/06/23 04:30:00;;;;;;;54.97;37.13;;;15.90;99.90;;;;;;4998533;28;20504;-89
2023/06/23 04:32:26;;;;;;;54.00;35.85;;;15.80;99.90;;;;;;4997533;28;20113;-91
2023/06/23 04:34:52;;;;;;;51.53;35.80;;;15.90;99.90;;;;;;4998352;28;20108;-91
2023/06/23 04:37:30;;;;;;;47.60;32.92;;;15.90;99.90;;;;;;4998079;28;20493;-92
2023/06/23 04:40:07;;;;;;;52.63;36.17;;;15.90;99.90;;;;;;4999406;28;20022;-92
2023/06/23 04:43:01;;;;;;;50.97;34.63;;;15.90;99.90;;;;;;4997690;28;20058;-93
2023/06/23 04:45:28;;;;;;;53.70;36.80;;;15.90;99.90;;;;;;4998291;28;20034;-93
2023/06/23 04:48:01;;;;;;;55.25;37.00;;;15.90;99.90;;;;;;4998735;28;20100;-90
2023/06/23 04:50:34;;;;;;;54.50;37.88;;;16.00;99.90;;;;;;4998085;28;20096;-90
2023/06/23 04:53:13;;;;;;;51.77;38.23;;;16.00;99.90;;;;;;4998546;28;20026;-89
2023/06/23 04:55:40;;;;;;;49.55;35.10;;;16.00;99.90;;;;;;4998239;28;20088;-90
2023/06/23 04:58:10;;;;;;;57.72;40.80;;;16.10;99.90;;;;;;4996913;28;20023;-92
2023/06/23 05:00:38;;;;;;;57.22;40.80;;;16.20;99.90;;;;;;4999850;28;20089;-95
2023/06/23 05:03:05;;;;;;;55.83;38.22;;;16.20;99.90;;;;;;4998801;28;20117;-93
2023/06/23 05:05:32;;;;;;;62.22;39.78;;;16.20;99.90;;;;;;5000900;28;20042;-93
2023/06/23 05:08:00;;;;;;;58.05;37.20;;;16.30;99.90;;;;;;5000465;28;20041;-91
2023/06/23 05:10:28;;;;;;;56.60;37.25;;;16.40;99.90;;;;;;4998983;28;20042;-89
2023/06/23 05:12:56;;;;;;;60.47;39.67;;;16.40;99.90;;;;;;4987898;28;20037;-89
2023/06/23 05:15:23;;;;;;;62.00;40.72;;;16.50;99.90;;;;;;5008619;28;20038;-90
2023/06/23 05:17:54;;;;;;;59.80;40.70;;;16.50;99.90;;;;;;5017184;28;20036;-92
2023/06/23 05:20:22;;;;;;;58.65;38.95;;;16.60;99.90;;;;;;5007504;28;20030;-89
2023/06/23 05:22:51;;;;;;;56.65;37.60;;;16.70;99.90;;;;;;5008417;28;20050;-89
2023/06/23 05:25:18;;;;;;;58.90;40.13;;;16.70;99.90;;;;;;5003865;28;20054;-90
2023/06/23 05:27:46;;;;;;;53.97;36.50;;;16.80;99.90;;;;;;4980765;28;20419;-91
2023/06/23 05:30:17;;;;;;;61.80;40.20;;;16.90;99.90;;;;;;4997138;28;20034;-89
2023/06/23 05:32:49;;;;;;;60.08;40.30;;;16.90;99.90;;;;;;4997328;28;20426;-91
2023/06/23 05:35:16;;;;;;;66.30;39.30;;;17.00;99.90;;;;;;4996327;28;20470;-88
2023/06/23 05:37:43;;;;;;;64.00;41.42;;;17.10;99.90;;;;;;5012007;28;20019;-88
2023/06/23 05:40:13;;;;;;;64.90;42.72;;;17.10;99.90;;;;;;4996804;28;20094;-87
2023/06/23 05:42:39;;;;;;;65.97;42.38;;;17.20;99.90;;;;;;4996468;28;20030;-88
2023/06/23 05:45:05;;;;;;;56.67;38.45;;;17.20;99.90;;;;;;4996314;28;20078;-89
2023/06/23 05:47:55;;;;;;;61.38;39.22;;;17.30;99.90;;;;;;4998094;28;20447;-86
2023/06/23 05:50:25;;;;;;;58.72;37.80;;;17.40;99.90;;;;;;4997665;28;20189;-88
2023/06/23 05:53:16;;;;;;;58.97;39.00;;;17.40;99.90;;;;;;4998695;28;20094;-89
2023/06/23 05:55:48;;;;;;;64.53;41.20;;;17.50;99.90;;;;;;4994675;28;20561;-91
2023/06/23 05:58:17;;;;;;;67.63;41.35;;;17.60;99.90;;;;;;5003675;28;20030;-90
2023/06/23 06:00:52;;;;;;;61.35;40.88;;;17.60;99.90;;;;;;5000076;28;20018;-90
2023/06/23 06:03:22;;;;;;;59.60;41.00;;;17.70;99.90;;;;;;4998571;28;20026;-89
2023/06/23 06:05:53;;;;;;;60.38;37.80;;;17.70;99.90;;;;;;5000553;28;20046;-90
2023/06/23 06:08:21;;;;;;;60.15;40.38;;;17.80;99.90;;;;;;5000512;28;20093;-90
2023/06/23 06:10:49;;;;;;;55.45;39.10;;;17.80;99.90;;;;;;5000590;28;20066;-91
2023/06/23 06:13:17;;;;;;;50.47;34.63;;;17.90;99.90;;;;;;5005756;28;20037;-91
2023/06/23 06:15:45;;;;;;;48.67;36.65;;;18.00;99.90;;;;;;4983987;28;20167;-93
2023/06/23 06:18:13;;;;;;;49.97;34.85;;;18.00;99.90;;;;;;5009625;28;20034;-93
2023/06/23 06:20:41;;;;;;;44.85;33.22;;;18.10;99.90;;;;;;5017570;28;20094;-95
2023/06/23 06:23:09;;;;;;;46.33;33.30;;;18.20;99.90;;;;;;4994366;28;20027;-92
2023/06/23 06:25:35;;;;;;;51.88;35.83;;;18.20;99.90;;;;;;5017695;28;20045;-93
2023/06/23 06:28:05;;;;;;;44.13;31.13;;;18.30;99.90;;;;;;4996791;28;20022;-89
2023/06/23 06:30:34;;;;;;;45.72;29.88;;;18.30;99.90;;;;;;5000192;28;20066;-93
2023/06/23 06:33:01;;;;;;;46.50;31.50;;;18.40;99.90;;;;;;4998911;28;20026;-93
2023/06/23 06:35:28;;;;;;;39.65;28.88;;;18.40;99.90;;;;;;5003755;28;20025;-93
2023/06/23 06:37:56;;;;;;;41.65;29.65;;;18.40;99.90;;;;;;5001202;28;20038;-89
2023/06/23 06:40:24;;;;;;;41.47;29.17;;;18.50;99.90;;;;;;5019858;28;20097;-92
2023/06/23 06:42:50;;;;;;;40.85;29.25;;;18.60;99.90;;;;;;5024148;28;20029;-92
2023/06/23 06:45:16;;;;;;;42.58;31.55;;;18.60;99.90;;;;;;5016202;28;20037;-93
2023/06/23 06:47:47;;;;;;;42.83;30.13;;;18.70;99.90;;;;;;5017378;28;20029;-92
2023/06/23 06:50:14;;;;;;;37.28;27.75;;;18.70;99.90;;;;;;5018063;28;20089;-89
2023/06/23 06:52:42;;;;;;;38.10;27.65;;;18.80;99.90;;;;;;5018061;28;20398;-93
2023/06/23 06:55:21;;;;;;;37.13;26.60;;;18.80;99.90;;;;;;5009735;28;20154;-92
2023/06/23 06:57:48;;;;;;;32.05;24.30;;;18.80;99.90;;;;;;5010175;28;20113;-92
2023/06/23 07:00:17;;;;;;;33.33;25.40;;;18.90;99.90;;;;;;5010035;28;20010;-92
2023/06/23 07:02:43;;;;;;;33.72;24.63;;;18.90;99.90;;;;;;5008576;28;20044;-92
2023/06/23 07:05:09;;;;;;;31.60;25.25;;;18.90;99.90;;;;;;5005314;28;20026;-92
2023/06/23 07:07:36;;;;;;;32.58;23.83;;;18.90;99.90;;;;;;5005271;28;20023;-92
2023/06/23 07:10:02;;;;;;;33.10;23.10;;;19.00;99.90;;;;;;4993608;28;20073;-93
2023/06/23 07:12:28;;;;;;;31.50;22.90;;;19.00;99.90;;;;;;5007968;28;20029;-92
2023/06/23 07:14:53;;;;;;;28.98;21.55;;;19.10;99.90;;;;;;5004712;28;20038;-92
2023/06/23 07:17:19;;;;;;;29.52;22.30;;;19.10;99.90;;;;;;5010074;28;20022;-93
2023/06/23 07:19:45;;;;;;;28.13;20.90;;;19.20;99.90;;;;;;4991649;28;20545;-92
2023/06/23 07:22:10;;;;;;;22.55;18.73;;;19.30;99.90;;;;;;4995467;28;20040;-93
2023/06/23 07:24:36;;;;;;;22.08;16.50;;;19.30;99.90;;;;;;4995303;28;20030;-91
2023/06/23 07:27:02;;;;;;;21.58;16.73;;;19.40;99.90;;;;;;5007452;28;20391;-93
2023/06/23 07:29:28;;;;;;;21.75;16.58;;;19.40;99.90;;;;;;5007426;28;20033;-85
2023/06/23 07:31:53;;;;;;;21.33;16.42;;;19.40;99.90;;;;;;4983423;28;20094;-92
2023/06/23 07:34:19;;;;;;;21.17;16.77;;;19.50;99.90;;;;;;5000672;28;20031;-93
2023/06/23 07:36:45;;;;;;;20.48;15.77;;;19.60;99.90;;;;;;5000563;28;20030;-91
2023/06/23 07:39:10;;;;;;;21.77;15.40;;;19.70;99.90;;;;;;4999004;28;20034;-91
2023/06/23 07:41:36;;;;;;;18.77;14.25;;;19.70;99.90;;;;;;4997018;28;20080;-90
2023/06/23 07:44:03;;;;;;;21.17;14.63;;;19.80;99.90;;;;;;4996570;28;20037;-91
2023/06/23 07:46:29;;;;;;;19.83;14.10;;;19.80;99.90;;;;;;4996395;28;20058;-92
2023/06/23 07:48:55;;;;;;;19.35;14.65;;;19.80;99.90;;;;;;5000215;28;20069;-93
2023/06/23 07:51:21;;;;;;;19.00;13.45;;;19.90;99.90;;;;;;5009624;28;20061;-93
2023/06/23 07:53:47;;;;;;;17.42;12.23;;;19.90;99.90;;;;;;5020970;28;20022;-91
2023/06/23 07:56:12;;;;;;;16.13;13.02;;;20.00;99.90;;;;;;5019206;28;20018;-92
2023/06/23 07:58:41;;;;;;;20.88;13.57;;;20.00;99.90;;;;;;5003982;28;20049;-94
2023/06/23 08:01:07;;;;;;;22.02;14.75;;;20.00;99.90;;;;;;5002194;28;20063;-79
2023/06/23 08:03:33;;;;;;;21.40;13.65;;;20.00;99.90;;;;;;5011940;28;20359;-79
2023/06/23 08:05:59;;;;;;;17.00;12.55;;;20.10;99.90;;;;;;4995890;28;20073;-78
2023/06/23 08:08:25;;;;;;;17.45;13.52;;;20.10;99.90;;;;;;5012286;28;20477;-78
2023/06/23 08:10:51;;;;;;;19.83;13.63;;;20.20;99.90;;;;;;5012019;28;20073;-78
2023/06/23 08:13:18;;;;;;;17.48;12.25;;;20.20;99.90;;;;;;5012069;28;20462;-78
2023/06/23 08:15:43;;;;;;;15.35;11.48;;;20.20;99.90;;;;;;4995460;28;20029;-78
2023/06/23 08:18:09;;;;;;;15.13;10.82;;;20.30;99.90;;;;;;4995729;28;20141;-78
2023/06/23 08:20:35;;;;;;;17.67;12.90;;;20.30;99.90;;;;;;4990770;28;20037;-78
2023/06/23 08:23:01;;;;;;;16.05;11.65;;;20.30;99.90;;;;;;4994949;28;20038;-77
2023/06/23 08:25:27;;;;;;;14.70;10.90;;;20.30;99.90;;;;;;4992484;28;20030;-78
2023/06/23 08:28:00;;;;;;;16.23;11.45;;;20.40;99.90;;;;;;4992475;28;20050;-78
2023/06/23 08:30:30;;;;;;;13.43;9.65;;;20.40;99.90;;;;;;4993294;28;20394;-78
2023/06/23 08:32:57;;;;;;;12.68;8.50;;;20.40;99.50;;;;;;4996565;28;20022;-78
2023/06/23 08:35:23;;;;;;;13.57;9.40;;;20.50;99.20;;;;;;5004615;28;20026;-80
2023/06/23 08:37:48;;;;;;;13.57;8.98;;;20.50;98.60;;;;;;5000379;28;20038;-80
2023/06/23 08:40:14;;;;;;;13.32;9.70;;;20.60;98.60;;;;;;5000054;28;20033;-79
2023/06/23 08:42:41;;;;;;;14.82;10.65;;;20.60;98.60;;;;;;4999894;28;20054;-78
2023/06/23 08:45:12;;;;;;;12.98;9.27;;;20.70;98.60;;;;;;4992327;28;20022;-78
2023/06/23 08:47:47;;;;;;;11.20;6.95;;;20.80;98.60;;;;;;4992574;28;20027;-79
2023/06/23 08:50:13;;;;;;;10.63;6.53;;;20.80;97.70;;;;;;5009897;28;20034;-82
2023/06/23 08:52:39;;;;;;;8.27;5.93;;;20.90;96.90;;;;;;5005444;28;20036;-76
2023/06/23 08:55:05;;;;;;;9.63;5.22;;;20.90;96.30;;;;;;5011804;28;20030;-77
2023/06/23 08:57:32;;;;;;;9.77;5.35;;;21.00;95.60;;;;;;4998191;28;20088;-78
2023/06/23 08:59:59;;;;;;;8.70;5.03;;;21.10;95.00;;;;;;4998083;28;20140;-76
2023/06/23 09:02:24;;;;;;;7.65;5.15;;;21.10;94.10;;;;;;5014907;28;20116;-79
2023/06/23 09:04:50;;;;;;;8.68;5.35;;;21.20;93.40;;;;;;5015604;28;20143;-76
2023/06/23 09:07:16;;;;;;;12.68;8.20;;;21.30;93.50;;;;;;5011087;28;20026;-79
2023/06/23 09:09:45;;;;;;;12.23;8.98;;;21.40;93.50;;;;;;4990221;28;20030;-80
2023/06/23 09:12:14;;;;;;;13.00;8.23;;;21.40;93.60;;;;;;5014344;28;20033;-78
2023/06/23 09:14:39;;;;;;;9.35;6.53;;;21.50;93.60;;;;;;5014365;28;20022;-77
2023/06/23 09:17:05;;;;;;;11.07;7.40;;;21.60;93.00;;;;;;5010196;28;20038;-77
2023/06/23 09:19:38;;;;;;;9.40;6.63;;;21.60;92.70;;;;;;5014973;28;20030;-79
2023/06/23 09:22:05;;;;;;;11.05;6.38;;;21.70;92.60;;;;;;5015457;28;20026;-78
2023/06/23 09:24:42;;;;;;;9.77;5.65;;;21.80;92.20;;;;;;4997830;28;20398;-78
2023/06/23 09:27:08;;;;;;;8.52;6.35;;;21.80;92.40;;;;;;5014261;28;20368;-77
2023/06/23 09:29:37;;;;;;;10.40;6.50;;;21.90;91.90;;;;;;5014397;28;20037;-79
2023/06/23 09:32:03;;;;;;;8.18;5.57;;;22.00;91.80;;;;;;5015541;28;20069;-79
2023/06/23 09:34:41;;;;;;;10.15;6.35;;;22.10;91.50;;;;;;5002340;28;20117;-77
2023/06/23 09:37:11;;;;;;;12.07;6.75;;;22.10;91.30;;;;;;4994643;28;20035;-79
2023/06/23 09:39:43;;;;;;;9.57;5.50;;;22.20;90.10;;;;;;4995900;28;20038;-78
2023/06/23 09:42:13;;;;;;;9.00;5.03;;;22.20;89.20;;;;;;4994724;28;20076;-78
2023/06/23 09:44:41;;;;;;;7.82;4.70;;;22.30;88.10;;;;;;4995759;28;20459;-78
2023/06/23 09:47:07;;;;;;;8.95;4.93;;;22.40;87.60;;;;;;4978432;28;20034;-78
2023/06/23 09:49:47;;;;;;;6.72;4.07;;;22.50;87.50;;;;;;4977939;28;20030;-78
2023/06/23 09:52:22;;;;;;;8.98;5.18;;;22.60;87.30;;;;;;4995741;28;20068;-78
2023/06/23 09:54:50;;;;;;;7.40;4.85;;;22.70;85.50;;;;;;4995566;28;20029;-78
2023/06/23 09:57:17;;;;;;;8.60;5.55;;;22.70;84.30;;;;;;4993861;28;20018;-79
2023/06/23 09:59:45;;;;;;;7.10;4.72;;;22.80;81.90;;;;;;4997348;28;20064;-78
2023/06/23 10:02:23;;;;;;;8.18;4.40;;;22.80;81.40;;;;;;5003426;28;20058;-77
2023/06/23 10:04:49;;;;;;;6.53;3.72;;;22.80;80.60;;;;;;5001933;28;20048;-78
2023/06/23 10:07:22;;;;;;;6.15;3.88;;;22.90;80.70;;;;;;4990601;28;20467;-77
2023/06/23 10:09:53;;;;;;;6.63;3.58;;;23.00;79.80;;;;;;5005752;28;20115;-77
2023/06/23 10:12:22;;;;;;;4.78;3.30;;;23.10;79.20;;;;;;5002703;28;20038;-78
2023/06/23 10:14:49;;;;;;;5.75;3.67;;;23.10;79.30;;;;;;5015569;28;20023;-77
2023/06/23 10:17:23;;;;;;;8.02;3.75;;;23.20;78.10;;;;;;4994293;28;20026;-78
2023/06/23 10:19:50;;;;;;;6.75;3.88;;;23.30;78.20;;;;;;4997304;28;20092;-77
2023/06/23 10:22:21;;;;;;;5.13;2.92;;;23.40;78.20;;;;;;4980419;28;20045;-77
2023/06/23 10:24:52;;;;;;;7.28;3.08;;;23.40;77.90;;;;;;4993464;28;20483;-77
2023/06/23 10:27:26;;;;;;;4.38;2.95;;;23.50;77.20;;;;;;4995134;28;20023;-78
2023/06/23 10:29:59;;;;;;;7.40;3.80;;;23.60;75.80;;;;;;4993381;28;20034;-78
2023/06/23 10:32:30;;;;;;;4.38;2.35;;;23.60;74.70;;;;;;4978784;28;20065;-89
2023/06/23 10:34:57;;;;;;;4.47;2.55;;;23.70;75.20;;;;;;5010300;28;20026;-87
2023/06/23 10:37:26;;;;;;;6.43;2.70;;;23.80;75.70;;;;;;5014871;28;20478;-87
2023/06/23 10:39:57;;;;;;;3.80;2.42;;;23.80;75.60;;;;;;5014344;28;20034;-86
2023/06/23 10:42:24;;;;;;;4.63;2.60;;;23.80;75.00;;;;;;5015528;28;20076;-87
2023/06/23 10:44:51;;;;;;;3.63;2.13;;;23.90;74.80;;;;;;5013981;28;20109;-88
2023/06/23 10:47:17;;;;;;;6.18;2.20;;;23.90;73.80;;;;;;5013947;28;20026;-88
2023/06/23 10:49:44;;;;;;;4.45;2.20;;;24.00;73.00;;;;;;5014815;28;20042;-87
2023/06/23 10:52:12;;;;;;;3.20;2.22;;;24.10;72.80;;;;;;5014214;28;20042;-88
2023/06/23 10:54:37;;;;;;;5.22;2.20;;;24.20;72.60;;;;;;5013912;28;20064;-87
2023/06/23 10:57:11;;;;;;;5.53;2.15;;;24.40;72.50;;;;;;4991461;28;20053;-88
2023/06/23 10:59:56;;;;;;;;;;;24.50;71.40;;;;;;5005262;28;20058;-86
2023/06/23 11:02:23;;;;;;;2.88;1.83;;;24.60;71.10;;;;;;5002492;28;20358;-87
2023/06/23 11:05:04;;;;;;;3.70;1.77;;;24.70;71.70;;;;;;5011261;28;20030;-88
2023/06/23 11:07:30;;;;;;;3.45;1.67;;;24.90;70.30;;;;;;4998462;28;20123;-89
2023/06/23 11:09:58;;;;;;;3.08;1.40;;;25.00;69.90;;;;;;5014834;28;20482;-86
2023/06/23 11:12:48;;;;;;;5.05;1.42;;;25.10;68.50;;;;;;5014960;28;20034;-87
2023/06/23 11:15:16;;;;;;;4.93;1.58;;;25.30;66.50;;;;;;5014995;28;20030;-85
2023/06/23 11:17:49;;;;;;;2.83;1.40;;;25.40;66.40;;;;;;4998703;28;20034;-87
2023/06/23 11:20:24;;;;;;;4.57;1.67;;;25.60;65.70;;;;;;5015407;28;20130;-85
2023/06/23 11:23:06;;;;;;;3.90;1.80;;;25.70;64.80;;;;;;5006414;28;20110;-86
2023/06/23 11:25:47;;;;;;;2.92;1.65;;;25.90;64.20;;;;;;5000172;28;20113;-87
2023/06/23 11:28:36;;;;;;;3.03;1.45;;;26.10;63.40;;;;;;5001422;28;20563;-88
2023/06/23 11:31:07;;;;;;;3.13;1.42;;;26.20;62.40;;;;;;5003439;28;20129;-87
2023/06/23 11:33:37;;;;;;;2.70;1.40;;;26.30;62.40;;;;;;4998025;28;20026;-84
2023/06/23 11:36:11;;;;;;;3.67;1.50;;;26.50;61.50;;;;;;4998155;28;20026;-88
2023/06/23 11:38:39;;;;;;;3.42;1.20;;;26.70;60.50;;;;;;4998137;28;20030;-88
2023/06/23 11:41:04;;;;;;;2.33;1.23;;;26.80;60.10;;;;;;4996232;28;20030;-87
2023/06/23 11:43:32;;;;;;;2.85;1.33;;;27.00;59.80;;;;;;4995404;28;20025;-92
2023/06/23 11:46:14;;;;;;;3.35;1.20;;;27.20;59.40;;;;;;5004383;28;20482;-87
2023/06/23 11:48:41;;;;;;;2.65;1.30;;;27.40;58.30;;;;;;5013885;28;20387;-86
2023/06/23 11:51:08;;;;;;;3.63;1.20;;;27.60;58.50;;;;;;4997143;28;20045;-89
2023/06/23 11:53:35;;;;;;;3.58;1.25;;;27.80;57.00;;;;;;4997333;28;20045;-88
2023/06/23 11:56:02;;;;;;;5.75;1.15;;;27.90;56.20;;;;;;5013721;28;20030;-88
2023/06/23 11:58:32;;;;;;;2.78;1.10;;;28.20;55.60;;;;;;5012679;28;20482;-85
2023/06/23 12:00:58;;;;;;;3.97;0.98;;;28.30;55.00;;;;;;4995158;28;20026;-86
2023/06/23 12:03:25;;;;;;;4.03;1.23;;;28.60;55.00;;;;;;5011410;28;20030;-86
2023/06/23 12:05:51;;;;;;;1.90;1.00;;;28.80;54.40;;;;;;4996677;28;20054;-88
2023/06/23 12:08:17;;;;;;;2.70;1.20;;;29.00;54.10;;;;;;4996735;28;20030;-88
2023/06/23 12:10:46;;;;;;;3.83;1.52;;;29.10;53.70;;;;;;4995807;28;20393;-86
2023/06/23 12:13:13;;;;;;;2.47;1.10;;;29.30;53.30;;;;;;5009644;28;20034;-86
2023/06/23 12:15:43;;;;;;;3.33;1.38;;;29.50;52.80;;;;;;5006099;28;20026;-87
2023/06/23 12:18:10;;;;;;;3.08;1.10;;;29.70;52.40;;;;;;4996603;28;20030;-87
2023/06/23 12:20:39;;;;;;;2.35;1.10;;;29.90;52.00;;;;;;4994290;28;20054;-86
2023/06/23 12:23:08;;;;;;;2.67;1.00;;;30.10;51.50;;;;;;4996554;28;20022;-87
2023/06/23 12:25:38;;;;;;;3.25;1.23;;;30.20;51.10;;;;;;4996515;28;20026;-87
2023/06/23 12:28:05;;;;;;;2.80;1.13;;;30.40;50.90;;;;;;4996548;28;20014;-89
2023/06/23 12:30:43;;;;;;;2.80;1.40;;;30.60;50.60;;;;;;4980502;28;20058;-87
2023/06/23 12:33:18;;;;;;;3.78;1.30;;;30.70;49.70;;;;;;4996120;28;20501;-86
2023/06/23 12:36:02;;;;;;;3.80;1.35;;;30.90;49.50;;;;;;4995714;28;20023;-87
2023/06/23 12:38:28;;;;;;;;;;;31.00;49.10;;;;;;4995514;28;20506;-87
2023/06/23 12:40:54;;;;;;;2.50;1.20;;;31.20;49.90;;;;;;4994791;28;19917;-85
2023/06/23 12:43:20;;;;;;;2.20;1.10;;;31.20;50.10;;;;;;4996375;28;20038;-86
2023/06/23 12:45:53;;;;;;;3.00;1.00;;;31.30;50.00;;;;;;4996107;28;20034;-85
2023/06/23 12:48:22;;;;;;;3.25;1.50;;;31.50;49.20;;;;;;4996630;28;20030;-85
2023/06/23 12:50:54;;;;;;;1.75;1.08;;;31.60;49.30;;;;;;4979512;28;20039;-87